1886 Hurricane NOT_NAMED (1886226N15336)


IBTrACS version v04r00. Visit IBTrACS website for data access.
Please direct all questions to the IBTrACS Q and A forum

Storm track - Intensity - Wind Radii - Intensity Data - Source Data - All data

Summary Information

Storm ID 1886226N15336
Start Aug 13 12Z
Max Intensity 100 kt (Aug 21 06Z), 962 mb (Aug 21 18Z)
End Aug 25 18Z
ATCF IDs ,AL071886
Track status Best track data.

Storm track plot

Map of storm track

Intensity plots

Map of storm track

Radial wind information

No radial wind information for this storm


Position and Intensity Table

BASIN ISO_TIME_________ NATURE LAT LON WMO WIND USA WIND MLC WIND MLC PRES
degrees north degrees east kts kts kts mb
NA 1886-08-13 12:00:00 TS 15.00 -24.00 30
NA 15:00:00 TS 14.99 -24.91 30
NA 18:00:00 TS 15.00 -25.80 30
NA 21:00:00 TS 15.04 -26.66 30
NA 1886-08-14 00:00:00 TS 15.10 -27.50 30
NA 03:00:00 TS 15.15 -28.34 30
NA 06:00:00 TS 15.20 -29.20 30
NA 09:00:00 TS 15.23 -30.08 35
NA 12:00:00 TS 15.30 -31.00 40
NA 15:00:00 TS 15.43 -31.98 40
NA 18:00:00 TS 15.60 -33.00 40
NA 21:00:00 TS 15.75 -34.00 42
NA 1886-08-15 00:00:00 TS 15.90 -35.00 45
NA 03:00:00 TS 16.05 -36.00 45
NA 06:00:00 TS 16.20 -37.00 45
NA 09:00:00 TS 16.32 -38.05 45
NA 12:00:00 TS 16.50 -39.00 45
NA 15:00:00 TS 16.83 -39.74 45
NA 18:00:00 TS 17.20 -40.40 45
NA 21:00:00 TS 17.51 -41.10 45
NA 1886-08-16 00:00:00 TS 17.80 -41.80 45
NA 03:00:00 TS 18.10 -42.51 45
NA 06:00:00 TS 18.40 -43.20 45
NA 09:00:00 TS 18.69 -43.81 45
NA 12:00:00 TS 19.00 -44.50 45
NA 15:00:00 TS 19.35 -45.48 45
NA 18:00:00 TS 19.70 -46.40 45
NA 21:00:00 TS 20.01 -46.89 50
NA 1886-08-17 00:00:00 TS 20.30 -47.30 55
NA 03:00:00 TS 20.54 -47.97 57
NA 06:00:00 TS 20.80 -48.70 60
NA 09:00:00 TS 21.15 -49.38 60
NA 12:00:00 TS 21.50 -50.00 60
NA 15:00:00 TS 21.76 -50.52 60
NA 18:00:00 TS 22.00 -51.00 60
NA 21:00:00 TS 22.25 -51.50 62
NA 1886-08-18 00:00:00 TS 22.50 -52.00 65
NA 03:00:00 TS 22.75 -52.50 65
NA 06:00:00 TS 23.00 -53.00 65
NA 09:00:00 TS 23.23 -53.49 65
NA 12:00:00 TS 23.50 -54.00 65
NA 15:00:00 TS 23.88 -54.54 65
NA 18:00:00 TS 24.30 -55.10 65
NA 21:00:00 TS 24.65 -55.68 65
NA 1886-08-19 00:00:00 TS 25.00 -56.20 65
NA 03:00:00 TS 25.40 -56.59 65
NA 06:00:00 TS 25.80 -56.90 65
NA 09:00:00 TS 26.12 -57.21 65
NA 12:00:00 TS 26.50 -57.50 65
NA 15:00:00 TS 27.07 -57.80 65
NA 18:00:00 TS 27.70 -58.10 65
NA 21:00:00 TS 28.30 -58.39 65
NA 1886-08-20 00:00:00 TS 28.80 -58.70 65
NA 03:00:00 TS 29.09 -59.05 65
NA 06:00:00 TS 29.30 -59.40 65
NA 09:00:00 TS 29.60 -59.70 65
NA 12:00:00 TS 30.50 -63.67 40 40 65
NA 15:00:00 TS 30.51 -65.26 45 70
NA 18:00:00 TS 30.22 -65.68 50 50 75
NA 21:00:00 TS 29.88 -65.20 55 80
NA 1886-08-21 00:00:00 TS 29.80 -64.10 60 60 85
NA 03:00:00 TS 30.01 -63.16 67 92
NA 06:00:00 TS 30.53 -62.47 75 75 100
NA 09:00:00 TS 31.36 -62.11 85 100
NA 12:00:00 TS 32.27 -62.07 95 95 100
NA 15:00:00 TS 32.93 -62.20 97 100
NA 18:00:00 TS 33.50 -62.50 100 100 100 962
NA 21:00:00 TS 34.11 -62.80 100 100 962
NA 1886-08-22 00:00:00 TS 34.67 -63.13 100 100 100 962
NA 03:00:00 TS 35.12 -63.44 100 100 962
NA 06:00:00 TS 35.57 -63.73 100 100 100 963
NA 09:00:00 TS 36.13 -64.02 100 100
NA 12:00:00 TS 36.73 -64.33 100 100 100
NA 15:00:00 TS 37.29 -64.71 97 97
NA 18:00:00 TS 37.90 -65.17 95 95 95
NA 21:00:00 TS 38.57 -65.76 92 92
NA 1886-08-23 00:00:00 TS 39.37 -66.27 90 90 90 983
NA 03:00:00 TS 40.39 -66.53 87 87
NA 06:00:00 TS 41.40 -66.47 85 85 85
NA 09:00:00 TS 42.10 -66.11 82 82
NA 12:00:00 TS 42.77 -65.33 80 80 80
NA 15:00:00 TS 43.60 -64.23 77 77
NA 18:00:00 TS 44.50 -62.67 75 75 75
NA 21:00:00 TS 45.42 -60.68 72 72
NA 1886-08-24 00:00:00 TS 46.27 -58.43 70 70 70
NA 03:00:00 TS 47.00 -56.25 67 67
NA 06:00:00 TS 47.60 -54.10 65 65 65
NA 09:00:00 TS 48.14 -52.02 62 62
NA 12:00:00 ET 48.50 -50.00 60 60 60
NA 15:00:00 ET 48.62 -48.10 57 57
NA 18:00:00 ET 48.60 -46.10 55 55 55
NA 21:00:00 ET 48.57 -43.71 52 52
NA 1886-08-25 00:00:00 ET 48.50 -41.30 50 50 50
NA 03:00:00 ET 48.39 -39.24 50 50
NA 06:00:00 ET 48.30 -37.30 50 50 50
NA 09:00:00 ET 48.28 -35.29 50 50
NA 12:00:00 ET 48.30 -33.30 50 50 50
NA 15:00:00 ET 48.31 -31.38 50 50
NA 18:00:00 ET 48.30 -29.50 50 50 50

Source Information

Agency Information
USA hurdat2-1851-2018-051019.txt:Line=5360:UNNAMED
TOKYO
CMA
HKO
NEWDELHI
REUNION
BOM
NADI
WELLINGTON
DS824
TD9636
TD9635
NEUMANN
MLC

All available IBTrACS Data

SEASON BASIN SUBBASIN ISO_TIME_________ NATURE LAT LON WMO WIND WMO AGENCY DIST2LAND LANDFALL IFLAG USA AGENCY USA ATCF_ID USA LAT USA LON USA STATUS USA WIND USA SSHS MLC LAT MLC LON MLC CLASS MLC WIND MLC PRES STORM SPEED STORM DIR
Year degrees north degrees east kts km km degrees north degrees east kts 1 degrees north degrees east kts mb kts degrees
1886 NA NA 1886-08-13 12:00:00 TS 15.00 -24.00 699 699 _____________O -1 15.00 -24.00 TD 30 18 269
1886 NA NA 15:00:00 TS 14.99 -24.91 796 796 _____________P -1 14.99 -24.91 TD 30 17 270
1886 NA NA 18:00:00 TS 15.00 -25.80 893 893 _____________O -1 15.00 -25.80 TD 30 17 272
1886 NA NA 21:00:00 TS 15.04 -26.66 989 989 _____________P -1 15.04 -26.66 TD 30 16 273
1886 NA NA 1886-08-14 00:00:00 TS 15.10 -27.50 1075 1075 _____________O -1 15.10 -27.50 TD 30 16 274
1886 NA NA 03:00:00 TS 15.15 -28.34 1161 1161 _____________P -1 15.15 -28.34 TD 30 16 273
1886 NA NA 06:00:00 TS 15.20 -29.20 1258 1258 _____________O -1 15.20 -29.20 TD 30 17 273
1886 NA NA 09:00:00 TS 15.23 -30.08 1355 1355 _____________P -1 15.23 -30.08 TD 35 17 273
1886 NA NA 12:00:00 TS 15.30 -31.00 1451 1451 _____________O -1 15.30 -31.00 TS 40 19 276
1886 NA NA 15:00:00 TS 15.43 -31.98 1559 1559 _____________P -1 15.43 -31.98 TS 40 20 279
1886 NA NA 18:00:00 TS 15.60 -33.00 1667 1667 _____________O -1 15.60 -33.00 TS 40 20 279
1886 NA NA 21:00:00 TS 15.75 -34.00 1774 1774 _____________P -1 15.75 -34.00 TS 42 20 279
1886 NA NA 1886-08-15 00:00:00 TS 15.90 -35.00 1881 1881 _____________O -1 15.90 -35.00 TS 45 19 279
1886 NA NA 03:00:00 TS 16.05 -36.00 1989 1989 _____________P -1 16.05 -36.00 TS 45 19 279
1886 NA NA 06:00:00 TS 16.20 -37.00 2053 1979 _____________O -1 16.20 -37.00 TS 45 20 278
1886 NA NA 09:00:00 TS 16.32 -38.05 1979 1916 _____________P -1 16.32 -38.05 TS 45 19 279
1886 NA NA 12:00:00 TS 16.50 -39.00 1916 1886 _____________O -1 16.50 -39.00 TS 45 17 287
1886 NA NA 15:00:00 TS 16.83 -39.74 1887 1869 _____________P -1 16.83 -39.74 TS 45 15 298
1886 NA NA 18:00:00 TS 17.20 -40.40 1870 1849 _____________O -1 17.20 -40.40 TS 45 15 298
1886 NA NA 21:00:00 TS 17.51 -41.10 1849 1832 _____________P -1 17.51 -41.10 TS 45 15 294
1886 NA NA 1886-08-16 00:00:00 TS 17.80 -41.80 1832 1812 _____________O -1 17.80 -41.80 TS 45 15 294
1886 NA NA 03:00:00 TS 18.10 -42.51 1814 1793 _____________P -1 18.10 -42.51 TS 45 15 294
1886 NA NA 06:00:00 TS 18.40 -43.20 1796 1784 _____________O -1 18.40 -43.20 TS 45 14 296
1886 NA NA 09:00:00 TS 18.69 -43.81 1788 1773 _____________P -1 18.69 -43.81 TS 45 14 296
1886 NA NA 12:00:00 TS 19.00 -44.50 1777 1760 _____________O -1 19.00 -44.50 TS 45 17 293
1886 NA NA 15:00:00 TS 19.35 -45.48 1765 1749 _____________P -1 19.35 -45.48 TS 45 19 291
1886 NA NA 18:00:00 TS 19.70 -46.40 1754 1750 _____________O -1 19.70 -46.40 TS 45 15 297
1886 NA NA 21:00:00 TS 20.01 -46.89 1764 1764 _____________P -1 20.01 -46.89 TS 50 10 305
1886 NA NA 1886-08-17 00:00:00 TS 20.30 -47.30 1776 1768 _____________O -1 20.30 -47.30 TS 55 11 298
1886 NA NA 03:00:00 TS 20.54 -47.97 1766 1733 _____________P -1 20.54 -47.97 TS 57 14 291
1886 NA NA 06:00:00 TS 20.80 -48.70 1733 1707 _____________O -1 20.80 -48.70 TS 60 15 295
1886 NA NA 09:00:00 TS 21.15 -49.38 1699 1666 _____________P -1 21.15 -49.38 TS 60 14 300
1886 NA NA 12:00:00 TS 21.50 -50.00 1666 1618 _____________O -1 21.50 -50.00 TS 60 12 300
1886 NA NA 15:00:00 TS 21.76 -50.52 1621 1574 _____________P -1 21.76 -50.52 TS 60 11 298
1886 NA NA 18:00:00 TS 22.00 -51.00 1574 1529 _____________O -1 22.00 -51.00 TS 60 10 298
1886 NA NA 21:00:00 TS 22.25 -51.50 1529 1488 _____________P -1 22.25 -51.50 TS 62 11 298
1886 NA NA 1886-08-18 00:00:00 TS 22.50 -52.00 1488 1445 _____________O -1 22.50 -52.00 HU 65 11 298
1886 NA NA 03:00:00 TS 22.75 -52.50 1445 1406 _____________P -1 22.75 -52.50 HU 65 11 298
1886 NA NA 06:00:00 TS 23.00 -53.00 1406 1366 _____________O -1 23.00 -53.00 HU 65 10 298
1886 NA NA 09:00:00 TS 23.23 -53.49 1366 1331 _____________P -1 23.23 -53.49 HU 65 10 299
1886 NA NA 12:00:00 TS 23.50 -54.00 1331 1299 _____________O -1 23.50 -54.00 HU 65 12 304
1886 NA NA 15:00:00 TS 23.88 -54.54 1304 1270 _____________P -1 23.88 -54.54 HU 65 13 309
1886 NA NA 18:00:00 TS 24.30 -55.10 1270 1244 _____________O -1 24.30 -55.10 HU 65 13 306
1886 NA NA 21:00:00 TS 24.65 -55.68 1241 1218 _____________P -1 24.65 -55.68 HU 65 12 305
1886 NA NA 1886-08-19 00:00:00 TS 25.00 -56.20 1218 1207 _____________O -1 25.00 -56.20 HU 65 11 312
1886 NA NA 03:00:00 TS 25.40 -56.59 1213 1211 _____________P -1 25.40 -56.59 HU 65 10 322
1886 NA NA 06:00:00 TS 25.80 -56.90 1218 1218 _____________O -1 25.80 -56.90 HU 65 9 322
1886 NA NA 09:00:00 TS 26.12 -57.21 1218 1218 _____________P -1 26.12 -57.21 HU 65 9 322
1886 NA NA 12:00:00 TS 26.50 -57.50 1228 1228 _____________O -1 26.50 -57.50 HU 65 11 331
1886 NA NA 15:00:00 TS 27.07 -57.80 1258 1258 _____________P -1 27.07 -57.80 HU 65 13 336
1886 NA NA 18:00:00 TS 27.70 -58.10 1291 1291 _____________O -1 27.70 -58.10 HU 65 13 337
1886 NA NA 21:00:00 TS 28.30 -58.39 1327 1327 _____________P -1 28.30 -58.39 HU 65 12 334
1886 NA NA 1886-08-20 00:00:00 TS 28.80 -58.70 1357 1356 _____________O -1 28.80 -58.70 HU 65 10 324
1886 NA NA 03:00:00 TS 29.09 -59.05 1365 1365 _____________P -1 29.09 -59.05 HU 65 8 309
1886 NA NA 06:00:00 TS 29.30 -59.40 1370 1370 _____________O -1 29.30 -59.40 HU 65 8 312
1886 NA NA 09:00:00 TS 29.60 -59.70 1386 1260 _____________P -1 29.60 -59.70 HU 65 39 288
1886 NA NA 12:00:00 TS 30.50 -63.67 40 hurdat_atl 1244 1123 O____________O hurdat_atl AL071886 31.70 -71.00 TS 40 0 29.90 -60.00 HU 65 49 281
1886 NA NA 15:00:00 TS 30.51 -65.26 1115 1091 P____________P AL071886 30.87 -70.17 TS 45 0 30.15 -60.35 HU 70 18 261
1886 NA NA 18:00:00 TS 30.22 -65.68 50 hurdat_atl 1104 1104 O____________O hurdat_atl AL071886 30.10 -69.00 TS 50 0 30.40 -60.70 HU 75 6 176
1886 NA NA 21:00:00 TS 29.88 -65.20 1163 1163 P____________P AL071886 29.47 -67.31 TS 55 0 30.69 -61.00 HU 80 14 107
1886 NA NA 1886-08-21 00:00:00 TS 29.80 -64.10 60 hurdat_atl 1255 1255 O____________O hurdat_atl AL071886 29.20 -65.50 TS 60 0 31.00 -61.30 HU 85 18 86
1886 NA NA 03:00:00 TS 30.01 -63.16 1314 1314 P____________P AL071886 29.36 -63.92 TS 67 1 31.30 -61.64 HU 92 16 63
1886 NA NA 06:00:00 TS 30.53 -62.47 75 hurdat_atl 1343 1331 O____________O hurdat_atl AL071886 30.00 -62.70 HU 75 1 31.60 -62.00 MH 100 16 34
1886 NA NA 09:00:00 TS 31.36 -62.11 1330 1267 P____________P AL071886 31.10 -61.94 HU 85 2 31.89 -62.46 MH 100 18 11
1886 NA NA 12:00:00 TS 32.27 -62.07 95 hurdat_atl 1258 1196 O____________O hurdat_atl AL071886 32.30 -61.70 HU 95 2 32.20 -62.80 MH 100 16 357
1886 NA NA 15:00:00 TS 32.93 -62.20 1196 1125 P____________P AL071886 33.13 -61.90 HU 97 3 32.51 -62.82 MH 100 13 343
1886 NA NA 18:00:00 TS 33.50 -62.50 100 hurdat_atl 1125 1054 O____________O hurdat_atl AL071886 33.80 -62.40 HU 100 3 32.90 -62.70 MH 100 962 13 337
1886 NA NA 21:00:00 TS 34.11 -62.80 1054 992 P____________P AL071886 34.45 -62.89 HU 100 3 33.44 -62.63 MH 100 962 13 336
1886 NA NA 1886-08-22 00:00:00 TS 34.67 -63.13 100 hurdat_atl 983 931 O____________I hurdat_atl AL071886 35.00 -63.40 HU 100 3 34.00 -62.60 MH 100 962 11 333
1886 NA NA 03:00:00 TS 35.12 -63.44 931 879 P____________P AL071886 35.46 -63.82 HU 100 3 34.44 -62.68 MH 100 962 10 331
1886 NA NA 06:00:00 TS 35.57 -63.73 100 hurdat_atl 870 809 O____________O hurdat_atl AL071886 35.90 -64.20 HU 100 3 34.90 -62.80 MH 100 963 11 335
1886 NA NA 09:00:00 TS 36.13 -64.02 809 741 P____________P AL071886 36.43 -64.59 HU 100 3 35.52 -62.88 MH 100 13 337
1886 NA NA 12:00:00 TS 36.73 -64.33 100 hurdat_atl 741 667 O____________O hurdat_atl AL071886 37.00 -65.00 HU 100 3 36.20 -63.00 MH 100 13 334
1886 NA NA 15:00:00 TS 37.29 -64.71 667 593 P____________P AL071886 37.51 -65.49 HU 97 3 36.86 -63.15 MH 97 13 330
1886 NA NA 18:00:00 TS 37.90 -65.17 95 hurdat_atl 588 509 O____________O hurdat_atl AL071886 38.10 -66.00 HU 95 2 37.50 -63.50 HU 95 15 327
1886 NA NA 21:00:00 TS 38.57 -65.76 495 416 P____________P AL071886 38.88 -66.55 HU 92 2 37.95 -64.19 HU 92 17 330
1886 NA NA 1886-08-23 00:00:00 TS 39.37 -66.27 90 hurdat_atl 403 331 O____________O hurdat_atl AL071886 39.70 -66.90 HU 90 2 38.70 -65.00 HU 90 983 19 342
1886 NA NA 03:00:00 TS 40.39 -66.53 326 242 P____________P AL071886 40.43 -66.88 HU 87 2 40.31 -65.83 HU 87 20 356
1886 NA NA 06:00:00 TS 41.40 -66.47 85 hurdat_atl 242 159 O____________O hurdat_atl AL071886 41.10 -66.50 HU 85 2 42.00 -66.40 HU 85 17 10
1886 NA NA 09:00:00 TS 42.10 -66.11 159 89 P____________P AL071886 41.67 -65.93 HU 82 1 42.97 -66.49 HU 82 16 32
1886 NA NA 12:00:00 TS 42.77 -65.33 80 hurdat_atl 77 45 O____________O hurdat_atl AL071886 42.30 -65.00 HU 80 1 43.70 -66.00 HU 80 20 43
1886 NA NA 15:00:00 TS 43.60 -64.23 52 33 P____________P AL071886 43.15 -63.77 HU 77 1 44.49 -65.14 HU 77 26 48
1886 NA NA 18:00:00 TS 44.50 -62.67 75 hurdat_atl 23 0 O____________O hurdat_atl AL071886 44.10 -62.20 HU 75 1 45.30 -63.60 HU 75 31 54
1886 NA NA 21:00:00 TS 45.42 -60.68 22 7 P____________P AL071886 45.01 -60.41 HU 72 1 46.23 -61.21 HU 72 34 59
1886 NA NA 1886-08-24 00:00:00 TS 46.27 -58.43 70 hurdat_atl 107 30 O____________O hurdat_atl AL071886 45.90 -58.40 HU 70 1 47.00 -58.50 HU 70 34 63
1886 NA NA 03:00:00 TS 47.00 -56.25 22 0 P____________P AL071886 46.82 -56.27 HU 67 1 47.35 -56.21 HU 67 32 66
1886 NA NA 06:00:00 TS 47.60 -54.10 65 hurdat_atl 14 0 O____________O hurdat_atl AL071886 47.60 -54.10 HU 65 1 47.60 -54.10 HU 65 31 68
1886 NA NA 09:00:00 TS 48.14 -52.02 59 59 P____________P AL071886 48.17 -52.02 HU 62 0 48.08 -52.02 HU 62 29 72
1886 NA NA 12:00:00 ET 48.50 -50.00 60 hurdat_atl 210 210 O____________O hurdat_atl AL071886 48.50 -50.00 EX 60 -4 48.50 -50.00 EX 60 26 80
1886 NA NA 15:00:00 ET 48.62 -48.10 350 350 P____________P AL071886 48.62 -48.10 EX 57 -4 48.62 -48.10 EX 57 26 88
1886 NA NA 18:00:00 ET 48.60 -46.10 55 hurdat_atl 495 495 O____________O hurdat_atl AL071886 48.60 -46.10 EX 55 -4 48.60 -46.10 EX 55 29 91
1886 NA NA 21:00:00 ET 48.57 -43.71 669 669 P____________P AL071886 48.57 -43.71 EX 52 -4 48.57 -43.71 EX 52 32 92
1886 NA NA 1886-08-25 00:00:00 ET 48.50 -41.30 50 hurdat_atl 843 843 O____________O hurdat_atl AL071886 48.50 -41.30 EX 50 -4 48.50 -41.30 EX 50 30 94
1886 NA NA 03:00:00 ET 48.39 -39.24 997 997 P____________P AL071886 48.39 -39.24 EX 50 -4 48.39 -39.24 EX 50 27 94
1886 NA NA 06:00:00 ET 48.30 -37.30 50 hurdat_atl 1137 1137 O____________O hurdat_atl AL071886 48.30 -37.30 EX 50 -4 48.30 -37.30 EX 50 26 92
1886 NA NA 09:00:00 ET 48.28 -35.29 1284 1284 P____________P AL071886 48.28 -35.29 EX 50 -4 48.28 -35.29 EX 50 27 90
1886 NA NA 12:00:00 ET 48.30 -33.30 50 hurdat_atl 1431 1431 O____________O hurdat_atl AL071886 48.30 -33.30 EX 50 -4 48.30 -33.30 EX 50 26 89
1886 NA NA 15:00:00 ET 48.31 -31.38 1506 1412 P____________P AL071886 48.31 -31.38 EX 50 -4 48.31 -31.38 EX 50 25 90
1886 NA NA 18:00:00 ET 48.30 -29.50 50 hurdat_atl 1405 O____________O hurdat_atl AL071886 48.30 -29.50 EX 50 -4 48.30 -29.50 EX 50 25 90